Terminal Aerodrome Forecast
Issued by NWS Cleveland, OH

Home | Current Version | Previous Version | Graphics & Text | Print | Product List | Glossary On
Versions: 1 2 3 4 5 6 7 8 9 10 11 12 13 14 15 16 17 18 19 20 21
000
FTUS41 KCLE 312300
TAFCAK
TAF
KCAK 312336Z 0100/0124 23008KT P6SM SCT020 BKN040
      TEMPO 0100/0103 3SM -SHRA OVC020
     FM010400 21007KT P6SM OVC020
     FM010600 21005KT 5SM BR OVC012
     FM010800 20003KT 2SM BR BKN009 OVC012
     FM011600 20012KT 5SM BR OVC012=

USA.gov is the U.S. government's official web portal to all federal, state and local government web resources and services.